createdAt,value
2022-09-20T00:02:03.393Z,97731.63
2022-09-20T00:04:31.518Z,97729.03
2022-09-20T00:06:59.159Z,97728.03
2022-09-20T00:09:27.548Z,97731.34
2022-09-20T00:11:55.208Z,97720.50
2022-09-20T00:14:23.220Z,97724.69
2022-09-20T00:16:50.983Z,97720.06
2022-09-20T00:19:23.200Z,97727.50
2022-09-20T00:21:50.834Z,97724.78
2022-09-20T00:24:19.469Z,97724.81
2022-09-20T00:26:47.105Z,97731.13
2022-09-20T00:29:15.179Z,97722.69
2022-09-20T00:31:43.114Z,97719.38
2022-09-20T00:34:29.584Z,97724.41
2022-09-20T00:36:58.857Z,97732.25
2022-09-20T00:39:27.046Z,97725.41
2022-09-20T00:41:54.689Z,97727.03
2022-09-20T00:44:47.961Z,97721.41
2022-09-20T00:47:23.428Z,97715.88
2022-09-20T00:49:54.638Z,97722.00
2022-09-20T00:52:24.873Z,97721.81
2022-09-20T00:54:52.931Z,97713.66
2022-09-20T00:57:20.810Z,97715.50
2022-09-20T00:59:50.232Z,97723.53
2022-09-20T01:02:21.220Z,97717.91
2022-09-20T01:04:50.381Z,97719.22
2022-09-20T01:07:23.004Z,97713.66
2022-09-20T01:09:53.092Z,97708.25
2022-09-20T01:12:23.134Z,97718.56
2022-09-20T01:14:53.425Z,97709.66
2022-09-20T01:17:26.082Z,97706.13
2022-09-20T01:20:08.184Z,97714.88
2022-09-20T01:22:45.624Z,97717.78
2022-09-20T01:25:18.740Z,97721.09
2022-09-20T01:27:50.171Z,97718.28
2022-09-20T01:30:20.794Z,97714.06
2022-09-20T01:33:12.833Z,97718.19
2022-09-20T01:35:42.881Z,97715.69
2022-09-20T01:38:24.843Z,97724.81
2022-09-20T01:41:04.042Z,97727.63
2022-09-20T01:43:38.387Z,97727.03
2022-09-20T01:46:21.314Z,97720.19
2022-09-20T01:48:52.045Z,97720.81
2022-09-20T01:51:52.216Z,97729.06
2022-09-20T01:54:50.752Z,97729.13
2022-09-20T01:57:48.287Z,97727.81
2022-09-20T02:00:22.840Z,97724.63
2022-09-20T02:03:14.529Z,97735.38
2022-09-20T02:05:56.195Z,97742.50
2022-09-20T02:08:52.496Z,97734.06
2022-09-20T02:11:22.098Z,97740.69
2022-09-20T02:14:21.364Z,97739.53
2022-09-20T02:16:56.746Z,97743.63
2022-09-20T02:19:42.846Z,97739.50
2022-09-20T02:22:25.741Z,97735.56
2022-09-20T02:25:02.821Z,97743.41
2022-09-20T02:27:41.581Z,97740.09
2022-09-20T02:30:20.996Z,97742.53
2022-09-20T02:33:13.964Z,97740.13
2022-09-20T02:35:51.722Z,97735.97
2022-09-20T02:38:43.038Z,97744.78
2022-09-20T02:41:32.899Z,97738.88
2022-09-20T02:44:08.823Z,97743.91
2022-09-20T02:46:44.877Z,97743.63
2022-09-20T02:49:23.623Z,97738.56
2022-09-20T02:51:57.546Z,97743.47
2022-09-20T02:54:35.281Z,97747.31
2022-09-20T02:57:15.421Z,97746.69
2022-09-20T02:59:48.281Z,97742.25
2022-09-20T03:02:25.109Z,97747.00
2022-09-20T03:05:09.925Z,97738.34
2022-09-20T03:07:57.779Z,97747.84
2022-09-20T03:10:32.935Z,97749.94
2022-09-20T03:13:23.823Z,97751.75
2022-09-20T03:16:04.191Z,97747.44
2022-09-20T03:18:40.125Z,97759.44
2022-09-20T03:21:25.040Z,97756.88
2022-09-20T03:24:05.043Z,97753.38
2022-09-20T03:26:44.889Z,97742.38
2022-09-20T03:29:28.408Z,97754.78
2022-09-20T03:32:13.362Z,97740.88
2022-09-20T03:34:54.091Z,97749.38
2022-09-20T03:37:47.583Z,97757.03
2022-09-20T03:40:59.842Z,97753.22
2022-09-20T03:43:41.215Z,97758.22
2022-09-20T03:46:19.161Z,97757.59
2022-09-20T03:49:05.697Z,97760.09
2022-09-20T03:51:40.265Z,97759.16
2022-09-20T03:54:44.009Z,97760.84
2022-09-20T03:57:36.408Z,97763.66
2022-09-20T04:00:23.961Z,97761.03
2022-09-20T04:03:24.266Z,97763.31
2022-09-20T04:06:02.838Z,97767.47
2022-09-20T04:08:49.776Z,97760.47
2022-09-20T04:11:27.200Z,97761.84
2022-09-20T04:14:00.658Z,97762.25
2022-09-20T04:16:37.852Z,97765.66
2022-09-20T04:19:16.743Z,97759.44
2022-09-20T04:21:51.336Z,97756.53
2022-09-20T04:24:24.865Z,97765.53
2022-09-20T04:27:00.964Z,97763.03
2022-09-20T04:29:37.549Z,97760.53
2022-09-20T04:32:16.871Z,97765.97
2022-09-20T04:35:07.364Z,97765.31
2022-09-20T04:37:38.959Z,97761.22
2022-09-20T04:40:22.123Z,97763.59
2022-09-20T04:43:27.653Z,97766.78
2022-09-20T04:46:09.699Z,97766.75
2022-09-20T04:49:20.371Z,97760.38
2022-09-20T04:52:25.815Z,97764.56
2022-09-20T04:55:40.460Z,97768.00
2022-09-20T04:58:56.691Z,97773.47
2022-09-20T05:02:07.764Z,97766.09
2022-09-20T05:05:02.882Z,97775.50
2022-09-20T05:08:17.116Z,97772.38
2022-09-20T05:11:30.447Z,97784.22
2022-09-20T05:14:22.950Z,97781.66
2022-09-20T05:17:14.809Z,97788.03
2022-09-20T05:19:56.467Z,97785.53
2022-09-20T05:22:48.256Z,97788.28
2022-09-20T05:25:39.436Z,97780.44
2022-09-20T05:28:13.652Z,97788.97
2022-09-20T05:30:48.420Z,97793.66
2022-09-20T05:33:23.876Z,97794.97
2022-09-20T05:36:03.688Z,97787.00
2022-09-20T05:38:40.804Z,97791.75
2022-09-20T05:41:19.467Z,97788.41
2022-09-20T05:43:56.026Z,97793.16
2022-09-20T05:46:41.514Z,97795.97
2022-09-20T05:49:21.871Z,97798.50
2022-09-20T05:52:15.804Z,97799.78
2022-09-20T05:55:14.574Z,97804.63
2022-09-20T05:57:57.626Z,97807.25
2022-09-20T06:00:31.911Z,97801.22
2022-09-20T06:03:11.556Z,97798.53
2022-09-20T06:05:51.703Z,97809.72
2022-09-20T06:08:50.183Z,97803.13
2022-09-20T06:11:46.745Z,97804.41
2022-09-20T06:14:29.281Z,97812.56
2022-09-20T06:17:06.572Z,97813.16
2022-09-20T06:19:42.449Z,97814.16
2022-09-20T06:22:17.783Z,97817.41
2022-09-20T06:24:51.202Z,97817.53
2022-09-20T06:27:23.185Z,97817.75
2022-09-20T06:29:56.145Z,97815.97
2022-09-20T06:32:24.432Z,97815.16
2022-09-20T06:34:55.244Z,97810.88
2022-09-20T06:37:55.919Z,97806.56
2022-09-20T06:40:57.809Z,97811.31
2022-09-20T06:43:25.707Z,97803.94
2022-09-20T06:45:54.056Z,97811.50
2022-09-20T06:48:22.041Z,97811.94
2022-09-20T06:50:52.293Z,97818.19
2022-09-20T06:53:31.131Z,97809.19
2022-09-20T06:55:59.866Z,97808.34
2022-09-20T06:58:28.316Z,97809.34
2022-09-20T07:00:57.035Z,97815.06
2022-09-20T07:03:25.512Z,97819.91
2022-09-20T07:05:54.759Z,97820.09
2022-09-20T07:08:22.768Z,97817.47
2022-09-20T07:10:51.415Z,97814.91
2022-09-20T07:13:20.888Z,97823.91
2022-09-20T07:15:49.280Z,97826.41
2022-09-20T07:18:17.300Z,97818.88
2022-09-20T07:20:45.309Z,97817.66
2022-09-20T07:23:16.224Z,97821.44
2022-09-20T07:25:45.423Z,97825.66
2022-09-20T07:28:13.360Z,97825.91
2022-09-20T07:30:41.768Z,97829.41
2022-09-20T07:33:10.489Z,97841.50
2022-09-20T07:35:38.713Z,97834.19
2022-09-20T07:38:07.002Z,97840.75
2022-09-20T07:40:36.239Z,97844.50
2022-09-20T07:43:04.418Z,97846.38
2022-09-20T07:45:32.687Z,97843.47
2022-09-20T07:48:05.300Z,97852.28
2022-09-20T07:50:33.914Z,97853.91
2022-09-20T07:53:01.923Z,97849.59
2022-09-20T07:55:31.431Z,97850.88
2022-09-20T07:58:00.748Z,97846.44
2022-09-20T08:00:28.592Z,97866.66
2022-09-20T08:03:01.903Z,97859.75
2022-09-20T08:05:30.204Z,97868.34
2022-09-20T08:07:59.785Z,97872.28
2022-09-20T08:10:28.520Z,97867.13
2022-09-20T08:15:49.302Z,97868.31
2022-09-20T08:18:20.535Z,97875.25
2022-09-20T08:20:48.828Z,97874.59
2022-09-20T08:23:24.284Z,97870.09
2022-09-20T08:25:52.687Z,97882.41
2022-09-20T08:28:20.550Z,97871.69
2022-09-20T08:30:50.470Z,97879.47
2022-09-20T08:33:18.306Z,97887.19
2022-09-20T08:35:50.464Z,97887.19
2022-09-20T08:41:11.865Z,97882.81
2022-09-20T08:43:45.638Z,97879.25
2022-09-20T08:46:23.309Z,97860.84
2022-09-20T08:48:52.657Z,97861.78
2022-09-20T08:51:23.330Z,97872.84
2022-09-20T08:53:57.509Z,97867.38
2022-09-20T08:56:29.981Z,97870.59
2022-09-20T08:59:01.384Z,97867.00
2022-09-20T09:01:32.503Z,97879.00
2022-09-20T09:04:12.503Z,97877.41
2022-09-20T09:06:41.528Z,97883.09
2022-09-20T09:09:15.748Z,97876.53
2022-09-20T09:11:46.066Z,97882.91
2022-09-20T09:14:37.926Z,97889.31
2022-09-20T09:17:07.680Z,97888.25
2022-09-20T09:19:45.134Z,97878.03
2022-09-20T09:22:19.127Z,97887.13
2022-09-20T09:24:47.163Z,97880.09
2022-09-20T09:27:17.645Z,97887.75
2022-09-20T09:29:52.543Z,97890.34
2022-09-20T09:32:24.474Z,97896.72
2022-09-20T09:34:53.185Z,97894.16
2022-09-20T09:37:30.576Z,97901.50
2022-09-20T09:40:12.146Z,97889.31
2022-09-20T09:42:50.205Z,97899.81
2022-09-20T09:45:31.976Z,97893.03
2022-09-20T09:48:03.096Z,97898.25
2022-09-20T09:50:34.040Z,97902.91
2022-09-20T09:53:07.686Z,97895.25
2022-09-20T09:55:52.712Z,97891.50
2022-09-20T09:58:33.385Z,97890.28
2022-09-20T10:01:08.125Z,97884.31
2022-09-20T10:03:51.274Z,97884.06
2022-09-20T10:06:27.812Z,97884.25
2022-09-20T10:09:11.076Z,97885.31
2022-09-20T10:12:01.976Z,97883.47
2022-09-20T10:14:47.397Z,97873.59
2022-09-20T10:17:35.486Z,97883.59
2022-09-20T10:24:03.952Z,97882.31
2022-09-20T10:27:00.732Z,97891.38
2022-09-20T10:29:40.687Z,97887.66
2022-09-20T10:32:23.232Z,97881.03
2022-09-20T10:35:27.022Z,97872.34
2022-09-20T10:38:13.160Z,97883.97
2022-09-20T10:41:13.683Z,97884.47
2022-09-20T10:44:02.826Z,97883.78
2022-09-20T10:46:43.025Z,97879.47
2022-09-20T10:49:24.152Z,97887.13
2022-09-20T10:52:04.782Z,97884.88
2022-09-20T10:54:47.979Z,97889.88
2022-09-20T10:57:51.023Z,97881.47
2022-09-20T11:00:22.499Z,97875.69
2022-09-20T11:03:05.497Z,97881.31
2022-09-20T11:05:48.098Z,97879.13
2022-09-20T11:08:22.819Z,97881.72
2022-09-20T11:10:55.951Z,97874.75
2022-09-20T11:13:31.584Z,97884.78
2022-09-20T11:16:04.651Z,97890.91
2022-09-20T11:18:40.298Z,97891.00
2022-09-20T11:21:13.235Z,97885.09
2022-09-20T11:23:51.251Z,97888.53
2022-09-20T11:30:09.648Z,97896.78
2022-09-20T11:32:42.880Z,97887.47
2022-09-20T11:35:25.118Z,97903.63
2022-09-20T11:38:00.578Z,97895.28
2022-09-20T11:40:33.906Z,97892.59
2022-09-20T11:43:06.438Z,97890.25
2022-09-20T11:45:39.027Z,97882.63
2022-09-20T11:48:12.394Z,97890.03
2022-09-20T11:51:14.612Z,97891.91
2022-09-20T11:54:10.567Z,97888.66
2022-09-20T11:56:40.329Z,97887.00
2022-09-20T11:59:24.395Z,97887.66
2022-09-20T12:01:58.321Z,97890.41
2022-09-20T12:04:33.902Z,97898.44
2022-09-20T12:07:43.983Z,97900.09
2022-09-20T12:10:24.855Z,97900.66
2022-09-20T12:12:59.452Z,97896.31
2022-09-20T12:15:31.231Z,97888.28
2022-09-20T12:18:37.510Z,97885.47
2022-09-20T12:21:16.974Z,97879.81
2022-09-20T12:24:19.007Z,97870.53
2022-09-20T12:26:49.137Z,97867.13
2022-09-20T12:29:50.657Z,97875.53
2022-09-20T12:32:56.796Z,97872.81
2022-09-20T12:36:14.895Z,97874.56
2022-09-20T12:39:21.825Z,97894.16
2022-09-20T12:41:55.678Z,97898.75
2022-09-20T12:44:42.435Z,97888.78
2022-09-20T12:47:21.340Z,97897.22
2022-09-20T12:50:11.387Z,97900.19
2022-09-20T12:53:00.667Z,97895.56
2022-09-20T12:55:40.367Z,97894.75
2022-09-20T12:58:21.038Z,97886.72
2022-09-20T13:00:51.256Z,97889.47
2022-09-20T13:03:29.516Z,97890.09
2022-09-20T13:06:27.488Z,97889.28
2022-09-20T13:09:04.594Z,97889.56
2022-09-20T13:11:41.431Z,97892.78
2022-09-20T13:14:14.546Z,97891.84
2022-09-20T13:16:52.640Z,97890.41
2022-09-20T13:19:25.941Z,97889.28
2022-09-20T13:21:59.603Z,97889.44
2022-09-20T13:24:29.963Z,97885.97
2022-09-20T13:27:06.807Z,97881.72
2022-09-20T13:29:42.330Z,97886.72
2022-09-20T13:32:18.769Z,97888.41
2022-09-20T13:34:47.018Z,97887.63
2022-09-20T13:37:23.506Z,97877.34
2022-09-20T13:39:54.736Z,97887.38
2022-09-20T13:42:24.669Z,97885.28
2022-09-20T13:44:53.188Z,97891.88
2022-09-20T13:47:26.629Z,97886.22
2022-09-20T13:50:00.251Z,97889.56
2022-09-20T13:52:30.852Z,97898.22
2022-09-20T13:54:58.698Z,97879.03
2022-09-20T13:57:31.402Z,97875.22
2022-09-20T14:00:01.734Z,97878.56
2022-09-20T14:02:32.970Z,97878.41
2022-09-20T14:05:02.967Z,97872.59
2022-09-20T14:07:31.684Z,97879.06
2022-09-20T14:10:00.270Z,97872.63
2022-09-20T14:12:30.176Z,97877.56
2022-09-20T14:14:59.507Z,97883.09
2022-09-20T14:17:33.435Z,97906.53
2022-09-20T14:20:01.684Z,97914.56
2022-09-20T14:22:30.735Z,97924.69
2022-09-20T14:25:02.125Z,97919.66
2022-09-20T14:27:32.739Z,97926.59
2022-09-20T14:30:00.593Z,97918.38
2022-09-20T14:32:40.441Z,97918.78
2022-09-20T14:35:16.876Z,97919.31
2022-09-20T14:37:47.816Z,97917.50
2022-09-20T14:40:21.772Z,97918.59
2022-09-20T14:42:53.840Z,97925.13
2022-09-20T14:45:28.386Z,97922.72
2022-09-20T14:48:08.073Z,97921.22
2022-09-20T14:50:40.575Z,97919.44
2022-09-20T14:53:27.041Z,97915.78
2022-09-20T14:56:00.904Z,97921.53
2022-09-20T14:58:31.336Z,97917.50
2022-09-20T15:01:05.102Z,97922.34
2022-09-20T15:03:38.919Z,97913.03
2022-09-20T15:06:10.844Z,97912.03
2022-09-20T15:08:42.882Z,97911.94
2022-09-20T15:11:15.099Z,97912.88
2022-09-20T15:13:44.781Z,97912.25
2022-09-20T15:16:14.942Z,97916.41
2022-09-20T15:18:44.584Z,97917.53
2022-09-20T15:21:13.423Z,97909.66
2022-09-20T15:23:41.998Z,97917.22
2022-09-20T15:26:13.623Z,97918.31
2022-09-20T15:28:41.713Z,97921.38
2022-09-20T15:31:11.750Z,97917.91
2022-09-20T15:33:39.616Z,97920.53
2022-09-20T15:36:08.983Z,97925.19
2022-09-20T15:38:36.797Z,97934.88
2022-09-20T15:41:04.752Z,97931.19
2022-09-20T15:43:33.470Z,97940.66
2022-09-20T15:46:17.724Z,97958.34
2022-09-20T15:48:47.129Z,97972.66
2022-09-20T15:51:16.188Z,97978.44
2022-09-20T15:53:46.191Z,97970.44
2022-09-20T15:56:21.106Z,97980.75
2022-09-20T15:58:52.571Z,97973.19
2022-09-20T16:01:20.559Z,97984.28
2022-09-20T16:03:51.243Z,97971.16
2022-09-20T16:06:19.455Z,97972.59
2022-09-20T16:08:48.076Z,97975.09
2022-09-20T16:11:22.254Z,97982.69
2022-09-20T16:13:55.148Z,97982.00
2022-09-20T16:16:23.191Z,97988.97
2022-09-20T16:19:10.847Z,97988.44
2022-09-20T16:21:40.640Z,97993.72
2022-09-20T16:24:09.798Z,97988.41
2022-09-20T16:26:38.319Z,97990.47
2022-09-20T16:29:07.506Z,97990.75
2022-09-20T16:31:40.253Z,97989.09
2022-09-20T16:34:16.893Z,97988.47
2022-09-20T16:36:45.839Z,97997.00
2022-09-20T16:39:15.284Z,97990.97
2022-09-20T16:41:44.386Z,97996.78
2022-09-20T16:44:13.126Z,97991.31
2022-09-20T16:46:41.810Z,98002.91
2022-09-20T16:49:12.547Z,98005.47
2022-09-20T16:51:43.078Z,98009.34
2022-09-20T16:54:12.977Z,98014.53
2022-09-20T16:56:42.879Z,98018.44
2022-09-20T16:59:10.786Z,98023.84
2022-09-20T17:01:39.716Z,98016.69
2022-09-20T17:04:09.073Z,98034.34
2022-09-20T17:06:39.622Z,98030.00
2022-09-20T17:09:08.600Z,98033.59
2022-09-20T17:11:43.754Z,98029.81
2022-09-20T17:14:11.619Z,98023.44
2022-09-20T17:20:08.736Z,98046.47
2022-09-20T17:22:37.856Z,98042.16
2022-09-20T17:25:06.271Z,98052.53
2022-09-20T17:27:34.444Z,98051.84
2022-09-20T17:30:02.714Z,98052.13
2022-09-20T17:32:30.946Z,98056.91
2022-09-20T17:38:41.297Z,98062.09
2022-09-20T17:41:13.976Z,98065.09
2022-09-20T17:43:42.904Z,98061.00
2022-09-20T17:46:13.736Z,98075.47
2022-09-20T17:48:49.294Z,98077.81
2022-09-20T17:51:18.658Z,98077.63
2022-09-20T17:53:48.448Z,98073.09
2022-09-20T17:56:16.831Z,98082.84
2022-09-20T17:58:45.124Z,98082.84
2022-09-20T18:01:15.398Z,98084.28
2022-09-20T18:03:46.743Z,98098.28
2022-09-20T18:10:16.106Z,98094.56
2022-09-20T18:12:45.258Z,98102.41
2022-09-20T18:15:13.210Z,98107.03
2022-09-20T18:17:41.723Z,98103.84
2022-09-20T18:20:10.495Z,98106.84
2022-09-20T18:22:38.742Z,98113.50
2022-09-20T18:25:07.909Z,98108.59
2022-09-20T18:27:38.322Z,98109.78
2022-09-20T18:30:08.310Z,98120.78
2022-09-20T18:32:36.222Z,98120.88
2022-09-20T18:35:04.306Z,98123.56
2022-09-20T18:37:32.740Z,98122.25
2022-09-20T18:40:01.044Z,98126.63
2022-09-20T18:42:29.025Z,98126.94
2022-09-20T18:44:59.221Z,98125.53
2022-09-20T18:47:27.571Z,98127.16
2022-09-20T18:49:55.506Z,98141.25
2022-09-20T18:52:24.615Z,98132.09
2022-09-20T18:54:55.200Z,98138.34
2022-09-20T18:57:23.932Z,98129.78
2022-09-20T18:59:54.598Z,98137.63
2022-09-20T19:02:42.068Z,98143.53
2022-09-20T19:05:26.357Z,98147.06
2022-09-20T19:08:08.602Z,98149.75
2022-09-20T19:10:43.338Z,98149.19
2022-09-20T19:13:39.511Z,98150.53
2022-09-20T19:16:19.198Z,98160.34
2022-09-20T19:19:10.172Z,98164.63
2022-09-20T19:21:47.394Z,98162.25
2022-09-20T19:24:23.919Z,98162.56
2022-09-20T19:26:53.081Z,98164.75
2022-09-20T19:33:02.954Z,98172.81
2022-09-20T19:35:38.230Z,98188.22
2022-09-20T19:38:16.067Z,98178.75
2022-09-20T19:40:50.337Z,98147.47
2022-09-20T19:43:35.747Z,98180.38
2022-09-20T19:46:13.731Z,98178.75
2022-09-20T19:48:47.248Z,98173.09
2022-09-20T19:51:17.168Z,98181.50
2022-09-20T19:53:45.864Z,98176.09
2022-09-20T19:56:24.870Z,98171.47
2022-09-20T19:58:56.153Z,98160.72
2022-09-20T20:01:26.130Z,98191.47
2022-09-20T20:03:55.878Z,98185.25
2022-09-20T20:06:32.418Z,98195.50
2022-09-20T20:09:08.327Z,98181.19
2022-09-20T20:11:46.613Z,98195.53
2022-09-20T20:14:24.103Z,98208.19
2022-09-20T20:17:04.131Z,98191.47
2022-09-20T20:19:51.447Z,98187.13
2022-09-20T20:22:36.107Z,98207.09
2022-09-20T20:25:04.445Z,98217.31
2022-09-20T20:27:33.026Z,98207.94
2022-09-20T20:30:00.955Z,98215.22
2022-09-20T20:32:29.211Z,98216.81
2022-09-20T20:34:57.063Z,98226.25
2022-09-20T20:37:28.571Z,98221.69
2022-09-20T20:39:56.477Z,98227.63
2022-09-20T20:42:24.903Z,98185.50
2022-09-20T20:44:53.071Z,98214.66
2022-09-20T20:47:21.356Z,98213.34
2022-09-20T20:49:52.603Z,98208.19
2022-09-20T20:52:21.074Z,98219.00
2022-09-20T20:54:50.547Z,98228.44
2022-09-20T20:57:19.393Z,98219.78
2022-09-20T20:59:47.463Z,98234.09
2022-09-20T21:02:15.839Z,98242.19
2022-09-20T21:04:43.922Z,98230.56
2022-09-20T21:07:12.546Z,98239.41
2022-09-20T21:09:40.542Z,98243.16
2022-09-20T21:12:09.967Z,98245.56
2022-09-20T21:14:38.335Z,98231.38
2022-09-20T21:17:06.733Z,98248.97
2022-09-20T21:19:35.159Z,98240.84
2022-09-20T21:22:03.445Z,98242.41
2022-09-20T21:24:31.394Z,98239.91
2022-09-20T21:26:59.737Z,98265.28
2022-09-20T21:29:29.021Z,98260.41
2022-09-20T21:31:57.263Z,98257.19
2022-09-20T21:34:25.365Z,98249.63
2022-09-20T21:36:53.965Z,98245.31
2022-09-20T21:39:21.889Z,98229.06
2022-09-20T21:41:49.879Z,98257.22
2022-09-20T21:44:17.746Z,98233.13
2022-09-20T21:46:48.536Z,98248.31
2022-09-20T21:49:17.886Z,98266.66
2022-09-20T21:51:46.238Z,98264.22
2022-09-20T21:54:14.916Z,98244.56
2022-09-20T21:56:43.181Z,98281.25
2022-09-20T21:59:11.207Z,98267.75
2022-09-20T22:01:41.545Z,98263.16
2022-09-20T22:04:12.829Z,98281.03
2022-09-20T22:06:42.889Z,98306.69
2022-09-20T22:09:12.688Z,98277.28
2022-09-20T22:11:43.693Z,98278.06
2022-09-20T22:14:13.034Z,98283.75
2022-09-20T22:16:42.931Z,98274.28
2022-09-20T22:19:14.003Z,98274.78
2022-09-20T22:21:44.394Z,98284.28
2022-09-20T22:24:13.930Z,98284.59
2022-09-20T22:26:44.531Z,98281.09
2022-09-20T22:29:12.937Z,98286.22
2022-09-20T22:31:45.535Z,98278.91
2022-09-20T22:34:18.460Z,98271.09
2022-09-20T22:36:47.350Z,98284.84
2022-09-20T22:39:15.724Z,98267.97
2022-09-20T22:41:44.987Z,98275.63
2022-09-20T22:44:13.410Z,98278.38
2022-09-20T22:46:42.125Z,98276.47
2022-09-20T22:49:10.540Z,98274.06
2022-09-20T22:51:40.236Z,98280.53
2022-09-20T22:54:09.622Z,98286.47
2022-09-20T22:56:38.746Z,98281.63
2022-09-20T22:59:09.219Z,98290.78
2022-09-20T23:01:39.073Z,98288.91
2022-09-20T23:04:09.147Z,98281.09
2022-09-20T23:06:40.906Z,98286.75
2022-09-20T23:09:10.871Z,98285.94
2022-09-20T23:11:42.351Z,98286.75
2022-09-20T23:14:12.799Z,98282.97
2022-09-20T23:16:41.779Z,98283.53
2022-09-20T23:19:10.095Z,98284.03
2022-09-20T23:21:41.213Z,98287.56
2022-09-20T23:24:11.379Z,98285.16
2022-09-20T23:26:40.685Z,98289.19
2022-09-20T23:29:10.998Z,98293.50
2022-09-20T23:31:40.854Z,98295.63
2022-09-20T23:34:10.676Z,98297.41
2022-09-20T23:36:42.257Z,98297.69
2022-09-20T23:39:11.706Z,98297.22
2022-09-20T23:41:41.838Z,98301.34
2022-09-20T23:44:11.504Z,98297.53
2022-09-20T23:46:40.392Z,98304.31
2022-09-20T23:49:09.360Z,98296.44
2022-09-20T23:51:39.254Z,98300.75
2022-09-20T23:54:07.209Z,98294.84
2022-09-20T23:56:36.263Z,98296.34
2022-09-20T23:59:04.126Z,98302.63
